OJAI/AMM METAR and TAF weather

Enter ICAO airport designator
Station Type Date Time Source
OJAI METAR 2020/01/21 09:00 UTC NOAA

OJAI 210900Z 26014KT 5000 BR SCT025 SCT030 06/04 Q1018 NOSIG


Station Type Date Time Source
OJAI Decoded METAR 2020/01/21 09:00 UTC NOAA

Queen Alia Airport, Jordan (OJAI) 31-40N 035-58E
Jan 21, 2020 - 04:00 AM EST / 2020.01.21 0900 UTC
Wind: from the W (260 degrees) at 16 MPH (14 KT):0
Visibility: 3 mile(s):0
Sky conditions: partly cloudy
Weather: mist
Temperature: 42 F (6 C)
Dew Point: 39 F (4 C)
Relative Humidity: 86%
Pressure (altimeter): 30.06 in. Hg (1018 hPa)
ob: OJAI 210900Z 26014KT 5000 BR SCT025 SCT030 06/04 Q1018 NOSIG
cycle: 9

Station Type Date Time Source
OJAI TAF 2020/01/21 06:15 UTC NOAA

TAF TAF OJAI 210452Z 2106/2212 26012KT 4000 -RA BR SCT020 BKN025
TEMPO 2106/2118 28020KT 1000 TSRA GR FEW018CB BKN025 BKN030 PROB30 2200/2206 28004KT 0900 FG

Example: see airport list